sensor_id;sensor_type;location;lat;lon;timestamp;pressure;altitude;pressure_sealevel;temperature
12430;BMP280;6279;42.192;24.326;2022-07-26T00:01:18;98686.75;;;24.75
12430;BMP280;6279;42.192;24.326;2022-07-26T00:03:44;98688.88;;;24.83
12430;BMP280;6279;42.192;24.326;2022-07-26T00:06:09;98690.50;;;24.79
12430;BMP280;6279;42.192;24.326;2022-07-26T00:08:35;98691.56;;;24.73
12430;BMP280;6279;42.192;24.326;2022-07-26T00:11:00;98695.28;;;24.82
12430;BMP280;6279;42.192;24.326;2022-07-26T00:13:26;98689.16;;;24.82
12430;BMP280;6279;42.192;24.326;2022-07-26T00:15:51;98692.09;;;24.75
12430;BMP280;6279;42.192;24.326;2022-07-26T00:18:17;98694.41;;;24.67
12430;BMP280;6279;42.192;24.326;2022-07-26T00:20:43;98696.81;;;24.59
12430;BMP280;6279;42.192;24.326;2022-07-26T00:23:09;98685.63;;;24.52
12430;BMP280;6279;42.192;24.326;2022-07-26T00:25:35;98682.94;;;24.47
12430;BMP280;6279;42.192;24.326;2022-07-26T00:28:01;98689.34;;;24.51
12430;BMP280;6279;42.192;24.326;2022-07-26T00:30:27;98693.56;;;24.47
12430;BMP280;6279;42.192;24.326;2022-07-26T00:32:52;98687.19;;;24.43
12430;BMP280;6279;42.192;24.326;2022-07-26T00:35:18;98686.63;;;24.36
12430;BMP280;6279;42.192;24.326;2022-07-26T00:37:44;98690.31;;;24.30
12430;BMP280;6279;42.192;24.326;2022-07-26T00:40:11;98689.25;;;24.31
12430;BMP280;6279;42.192;24.326;2022-07-26T00:42:36;98688.97;;;24.28
12430;BMP280;6279;42.192;24.326;2022-07-26T00:45:03;98698.06;;;24.32
12430;BMP280;6279;42.192;24.326;2022-07-26T00:47:29;98693.50;;;24.27
12430;BMP280;6279;42.192;24.326;2022-07-26T00:49:54;98700.13;;;24.15
12430;BMP280;6279;42.192;24.326;2022-07-26T00:52:20;98700.31;;;24.04
12430;BMP280;6279;42.192;24.326;2022-07-26T00:54:45;98695.81;;;24.09
12430;BMP280;6279;42.192;24.326;2022-07-26T00:57:12;98702.94;;;23.99
12430;BMP280;6279;42.192;24.326;2022-07-26T00:59:38;98695.97;;;23.93
12430;BMP280;6279;42.192;24.326;2022-07-26T01:02:05;98694.00;;;23.74
12430;BMP280;6279;42.192;24.326;2022-07-26T01:04:31;98691.06;;;23.71
12430;BMP280;6279;42.192;24.326;2022-07-26T01:06:57;98686.78;;;23.65
12430;BMP280;6279;42.192;24.326;2022-07-26T01:09:23;98693.09;;;23.59
12430;BMP280;6279;42.192;24.326;2022-07-26T01:11:48;98694.22;;;23.63
12430;BMP280;6279;42.192;24.326;2022-07-26T01:14:14;98689.66;;;23.58
12430;BMP280;6279;42.192;24.326;2022-07-26T01:16:40;98683.00;;;23.56
12430;BMP280;6279;42.192;24.326;2022-07-26T01:19:06;98678.78;;;23.60
12430;BMP280;6279;42.192;24.326;2022-07-26T01:21:32;98673.69;;;23.53
12430;BMP280;6279;42.192;24.326;2022-07-26T01:23:57;98673.19;;;23.56
12430;BMP280;6279;42.192;24.326;2022-07-26T01:26:23;98676.69;;;23.62
12430;BMP280;6279;42.192;24.326;2022-07-26T01:28:48;98675.59;;;23.58
12430;BMP280;6279;42.192;24.326;2022-07-26T01:31:14;98679.25;;;23.47
12430;BMP280;6279;42.192;24.326;2022-07-26T01:33:40;98671.59;;;23.55
12430;BMP280;6279;42.192;24.326;2022-07-26T01:36:06;98680.31;;;23.51
12430;BMP280;6279;42.192;24.326;2022-07-26T01:38:32;98673.94;;;23.47
12430;BMP280;6279;42.192;24.326;2022-07-26T01:40:58;98673.97;;;23.52
12430;BMP280;6279;42.192;24.326;2022-07-26T01:43:23;98680.03;;;23.48
12430;BMP280;6279;42.192;24.326;2022-07-26T01:45:49;98675.78;;;23.47
12430;BMP280;6279;42.192;24.326;2022-07-26T01:48:14;98672.59;;;23.45
12430;BMP280;6279;42.192;24.326;2022-07-26T01:50:40;98672.84;;;23.43
12430;BMP280;6279;42.192;24.326;2022-07-26T01:53:05;98676.03;;;23.45
12430;BMP280;6279;42.192;24.326;2022-07-26T01:55:30;98678.16;;;23.43
12430;BMP280;6279;42.192;24.326;2022-07-26T01:57:56;98682.09;;;23.41
12430;BMP280;6279;42.192;24.326;2022-07-26T02:00:21;98679.06;;;23.28
12430;BMP280;6279;42.192;24.326;2022-07-26T02:02:46;98680.66;;;23.29
12430;BMP280;6279;42.192;24.326;2022-07-26T02:05:12;98677.25;;;23.33
12430;BMP280;6279;42.192;24.326;2022-07-26T02:07:40;98675.38;;;23.29
12430;BMP280;6279;42.192;24.326;2022-07-26T02:10:06;98685.50;;;23.06
12430;BMP280;6279;42.192;24.326;2022-07-26T02:12:32;98677.31;;;23.07
12430;BMP280;6279;42.192;24.326;2022-07-26T02:14:58;98680.63;;;22.93
12430;BMP280;6279;42.192;24.326;2022-07-26T02:17:23;98669.16;;;22.87
12430;BMP280;6279;42.192;24.326;2022-07-26T02:19:49;98674.03;;;22.69
12430;BMP280;6279;42.192;24.326;2022-07-26T02:22:14;98681.09;;;22.64
12430;BMP280;6279;42.192;24.326;2022-07-26T02:24:40;98674.59;;;22.71
12430;BMP280;6279;42.192;24.326;2022-07-26T02:27:06;98669.44;;;22.65
12430;BMP280;6279;42.192;24.326;2022-07-26T02:29:32;98675.50;;;22.61
12430;BMP280;6279;42.192;24.326;2022-07-26T02:31:58;98679.91;;;22.50
12430;BMP280;6279;42.192;24.326;2022-07-26T02:34:24;98669.53;;;22.49
12430;BMP280;6279;42.192;24.326;2022-07-26T02:36:50;98677.31;;;22.55
12430;BMP280;6279;42.192;24.326;2022-07-26T02:39:15;98680.91;;;22.44
12430;BMP280;6279;42.192;24.326;2022-07-26T02:41:41;98675.81;;;22.38
12430;BMP280;6279;42.192;24.326;2022-07-26T02:44:07;98678.47;;;22.38
12430;BMP280;6279;42.192;24.326;2022-07-26T02:46:33;98687.22;;;22.39
12430;BMP280;6279;42.192;24.326;2022-07-26T02:48:58;98688.13;;;22.28
12430;BMP280;6279;42.192;24.326;2022-07-26T02:51:25;98697.13;;;22.27
12430;BMP280;6279;42.192;24.326;2022-07-26T02:53:50;98700.47;;;22.18
12430;BMP280;6279;42.192;24.326;2022-07-26T02:56:16;98696.94;;;22.12
12430;BMP280;6279;42.192;24.326;2022-07-26T02:58:41;98697.03;;;22.17
12430;BMP280;6279;42.192;24.326;2022-07-26T03:01:07;98694.25;;;22.07
12430;BMP280;6279;42.192;24.326;2022-07-26T03:03:32;98702.72;;;22.09
12430;BMP280;6279;42.192;24.326;2022-07-26T03:05:58;98700.81;;;22.05
12430;BMP280;6279;42.192;24.326;2022-07-26T03:08:23;98701.78;;;21.99
12430;BMP280;6279;42.192;24.326;2022-07-26T03:10:49;98699.78;;;22.06
12430;BMP280;6279;42.192;24.326;2022-07-26T03:13:14;98709.44;;;21.96
12430;BMP280;6279;42.192;24.326;2022-07-26T03:15:40;98705.72;;;21.97
12430;BMP280;6279;42.192;24.326;2022-07-26T03:18:05;98699.78;;;21.90
12430;BMP280;6279;42.192;24.326;2022-07-26T03:20:31;98705.72;;;21.97
12430;BMP280;6279;42.192;24.326;2022-07-26T03:22:56;98710.06;;;22.02
12430;BMP280;6279;42.192;24.326;2022-07-26T03:25:22;98714.81;;;22.00
12430;BMP280;6279;42.192;24.326;2022-07-26T03:27:47;98716.47;;;22.06
12430;BMP280;6279;42.192;24.326;2022-07-26T03:30:13;98719.72;;;22.13
12430;BMP280;6279;42.192;24.326;2022-07-26T03:32:39;98719.13;;;22.06
12430;BMP280;6279;42.192;24.326;2022-07-26T03:35:06;98726.31;;;22.11
12430;BMP280;6279;42.192;24.326;2022-07-26T03:37:32;98727.75;;;22.18
12430;BMP280;6279;42.192;24.326;2022-07-26T03:39:57;98731.47;;;22.17
12430;BMP280;6279;42.192;24.326;2022-07-26T03:42:23;98730.72;;;22.00
12430;BMP280;6279;42.192;24.326;2022-07-26T03:44:48;98732.13;;;21.92
12430;BMP280;6279;42.192;24.326;2022-07-26T03:47:13;98726.53;;;21.88
12430;BMP280;6279;42.192;24.326;2022-07-26T03:49:39;98734.88;;;21.97
12430;BMP280;6279;42.192;24.326;2022-07-26T03:52:04;98735.13;;;22.16
12430;BMP280;6279;42.192;24.326;2022-07-26T03:54:30;98733.78;;;22.35
12430;BMP280;6279;42.192;24.326;2022-07-26T03:56:55;98730.75;;;22.47
12430;BMP280;6279;42.192;24.326;2022-07-26T03:59:21;98735.00;;;22.48
12430;BMP280;6279;42.192;24.326;2022-07-26T04:01:48;98729.53;;;22.55
12430;BMP280;6279;42.192;24.326;2022-07-26T04:04:14;98724.09;;;22.66
12430;BMP280;6279;42.192;24.326;2022-07-26T04:06:41;98715.53;;;22.85
12430;BMP280;6279;42.192;24.326;2022-07-26T04:09:07;98719.69;;;23.02
12430;BMP280;6279;42.192;24.326;2022-07-26T04:11:33;98711.34;;;23.15
12430;BMP280;6279;42.192;24.326;2022-07-26T04:13:59;98715.41;;;23.27
12430;BMP280;6279;42.192;24.326;2022-07-26T04:16:25;98713.50;;;23.23
12430;BMP280;6279;42.192;24.326;2022-07-26T04:18:51;98711.97;;;23.27
12430;BMP280;6279;42.192;24.326;2022-07-26T04:21:16;98704.13;;;23.41
12430;BMP280;6279;42.192;24.326;2022-07-26T04:23:42;98702.59;;;23.45
12430;BMP280;6279;42.192;24.326;2022-07-26T04:26:07;98700.59;;;23.62
12430;BMP280;6279;42.192;24.326;2022-07-26T04:28:32;98704.03;;;23.62
12430;BMP280;6279;42.192;24.326;2022-07-26T04:30:59;98708.09;;;23.74
12430;BMP280;6279;42.192;24.326;2022-07-26T04:33:24;98705.75;;;23.83
12430;BMP280;6279;42.192;24.326;2022-07-26T04:35:50;98709.38;;;24.08
12430;BMP280;6279;42.192;24.326;2022-07-26T04:38:16;98705.66;;;24.14
12430;BMP280;6279;42.192;24.326;2022-07-26T04:40:42;98703.38;;;24.32
12430;BMP280;6279;42.192;24.326;2022-07-26T04:43:08;98708.44;;;24.38
12430;BMP280;6279;42.192;24.326;2022-07-26T04:45:33;98711.16;;;24.63
12430;BMP280;6279;42.192;24.326;2022-07-26T04:47:59;98708.31;;;24.79
12430;BMP280;6279;42.192;24.326;2022-07-26T04:50:24;98712.59;;;24.94
12430;BMP280;6279;42.192;24.326;2022-07-26T04:52:52;98713.94;;;24.92
12430;BMP280;6279;42.192;24.326;2022-07-26T04:55:18;98713.69;;;25.08
12430;BMP280;6279;42.192;24.326;2022-07-26T04:57:45;98705.69;;;25.72
12430;BMP280;6279;42.192;24.326;2022-07-26T05:00:13;98706.53;;;26.44
12430;BMP280;6279;42.192;24.326;2022-07-26T05:02:38;98702.25;;;27.00
12430;BMP280;6279;42.192;24.326;2022-07-26T05:05:05;98702.72;;;27.45
12430;BMP280;6279;42.192;24.326;2022-07-26T05:07:44;98700.25;;;28.04
12430;BMP280;6279;42.192;24.326;2022-07-26T05:10:10;98710.38;;;28.53
12430;BMP280;6279;42.192;24.326;2022-07-26T05:12:36;98705.47;;;28.60
12430;BMP280;6279;42.192;24.326;2022-07-26T05:15:03;98704.66;;;28.59
12430;BMP280;6279;42.192;24.326;2022-07-26T05:17:28;98703.94;;;28.54
12430;BMP280;6279;42.192;24.326;2022-07-26T05:19:54;98698.25;;;29.14
12430;BMP280;6279;42.192;24.326;2022-07-26T05:22:19;98695.69;;;29.41
12430;BMP280;6279;42.192;24.326;2022-07-26T05:24:45;98686.53;;;29.60
12430;BMP280;6279;42.192;24.326;2022-07-26T05:27:10;98688.06;;;29.79
12430;BMP280;6279;42.192;24.326;2022-07-26T05:29:35;98689.91;;;29.65
12430;BMP280;6279;42.192;24.326;2022-07-26T05:32:01;98691.66;;;29.88
12430;BMP280;6279;42.192;24.326;2022-07-26T05:34:26;98697.19;;;29.78
12430;BMP280;6279;42.192;24.326;2022-07-26T05:36:51;98687.59;;;30.03
12430;BMP280;6279;42.192;24.326;2022-07-26T05:39:17;98691.09;;;30.17
12430;BMP280;6279;42.192;24.326;2022-07-26T05:41:43;98696.16;;;30.32
12430;BMP280;6279;42.192;24.326;2022-07-26T05:44:08;98696.53;;;30.39
12430;BMP280;6279;42.192;24.326;2022-07-26T05:46:35;98691.38;;;30.55
12430;BMP280;6279;42.192;24.326;2022-07-26T05:49:02;98688.16;;;30.80
12430;BMP280;6279;42.192;24.326;2022-07-26T05:51:28;98688.91;;;30.93
12430;BMP280;6279;42.192;24.326;2022-07-26T05:53:54;98688.47;;;31.13
12430;BMP280;6279;42.192;24.326;2022-07-26T05:56:20;98686.19;;;31.50
12430;BMP280;6279;42.192;24.326;2022-07-26T05:58:45;98685.75;;;31.77
12430;BMP280;6279;42.192;24.326;2022-07-26T06:01:11;98691.50;;;31.41
12430;BMP280;6279;42.192;24.326;2022-07-26T06:03:37;98686.13;;;31.63
12430;BMP280;6279;42.192;24.326;2022-07-26T06:06:02;98687.06;;;31.88
12430;BMP280;6279;42.192;24.326;2022-07-26T06:08:28;98683.13;;;31.94
12430;BMP280;6279;42.192;24.326;2022-07-26T06:10:53;98679.38;;;32.03
12430;BMP280;6279;42.192;24.326;2022-07-26T06:13:19;98676.50;;;32.00
12430;BMP280;6279;42.192;24.326;2022-07-26T06:15:45;98681.28;;;32.03
12430;BMP280;6279;42.192;24.326;2022-07-26T06:18:11;98672.69;;;32.22
12430;BMP280;6279;42.192;24.326;2022-07-26T06:20:38;98679.09;;;32.05
12430;BMP280;6279;42.192;24.326;2022-07-26T06:23:04;98669.19;;;32.30
12430;BMP280;6279;42.192;24.326;2022-07-26T06:25:30;98665.84;;;32.80
12430;BMP280;6279;42.192;24.326;2022-07-26T06:27:55;98659.81;;;33.07
12430;BMP280;6279;42.192;24.326;2022-07-26T06:30:20;98666.16;;;33.20
12430;BMP280;6279;42.192;24.326;2022-07-26T06:32:46;98667.91;;;33.16
12430;BMP280;6279;42.192;24.326;2022-07-26T06:35:12;98663.59;;;33.40
12430;BMP280;6279;42.192;24.326;2022-07-26T06:37:39;98648.38;;;33.52
12430;BMP280;6279;42.192;24.326;2022-07-26T06:40:06;98645.03;;;33.63
12430;BMP280;6279;42.192;24.326;2022-07-26T06:42:31;98646.81;;;33.88
12430;BMP280;6279;42.192;24.326;2022-07-26T06:44:58;98638.53;;;33.48
12430;BMP280;6279;42.192;24.326;2022-07-26T06:47:24;98649.22;;;33.11
12430;BMP280;6279;42.192;24.326;2022-07-26T06:49:49;98641.22;;;33.56
12430;BMP280;6279;42.192;24.326;2022-07-26T06:52:14;98640.78;;;33.91
12430;BMP280;6279;42.192;24.326;2022-07-26T06:54:40;98640.66;;;34.24
12430;BMP280;6279;42.192;24.326;2022-07-26T06:57:05;98645.94;;;34.12
12430;BMP280;6279;42.192;24.326;2022-07-26T06:59:30;98643.03;;;34.45
12430;BMP280;6279;42.192;24.326;2022-07-26T07:01:56;98640.66;;;34.72
12430;BMP280;6279;42.192;24.326;2022-07-26T07:04:21;98632.50;;;35.32
12430;BMP280;6279;42.192;24.326;2022-07-26T07:06:47;98638.09;;;35.91
12430;BMP280;6279;42.192;24.326;2022-07-26T07:09:12;98631.28;;;35.73
12430;BMP280;6279;42.192;24.326;2022-07-26T07:11:37;98636.41;;;35.43
12430;BMP280;6279;42.192;24.326;2022-07-26T07:14:03;98637.78;;;34.97
12430;BMP280;6279;42.192;24.326;2022-07-26T07:16:28;98627.09;;;35.32
12430;BMP280;6279;42.192;24.326;2022-07-26T07:18:54;98630.84;;;35.40
12430;BMP280;6279;42.192;24.326;2022-07-26T07:21:19;98635.66;;;35.23
12430;BMP280;6279;42.192;24.326;2022-07-26T07:23:44;98629.03;;;35.32
12430;BMP280;6279;42.192;24.326;2022-07-26T07:26:10;98636.75;;;35.85
12430;BMP280;6279;42.192;24.326;2022-07-26T07:28:35;98633.81;;;36.02
12430;BMP280;6279;42.192;24.326;2022-07-26T07:31:03;98635.63;;;36.10
12430;BMP280;6279;42.192;24.326;2022-07-26T07:33:29;98642.28;;;36.47
12430;BMP280;6279;42.192;24.326;2022-07-26T07:35:54;98643.88;;;36.37
12430;BMP280;6279;42.192;24.326;2022-07-26T07:38:20;98639.66;;;36.63
12430;BMP280;6279;42.192;24.326;2022-07-26T07:40:45;98632.22;;;36.98
12430;BMP280;6279;42.192;24.326;2022-07-26T07:43:11;98637.84;;;36.66
12430;BMP280;6279;42.192;24.326;2022-07-26T07:45:36;98626.72;;;37.49
12430;BMP280;6279;42.192;24.326;2022-07-26T07:48:02;98624.84;;;37.79
12430;BMP280;6279;42.192;24.326;2022-07-26T07:50:27;98622.22;;;37.83
12430;BMP280;6279;42.192;24.326;2022-07-26T07:52:53;98626.59;;;37.72
12430;BMP280;6279;42.192;24.326;2022-07-26T07:55:18;98625.78;;;37.72
12430;BMP280;6279;42.192;24.326;2022-07-26T07:57:44;98619.34;;;37.76
12430;BMP280;6279;42.192;24.326;2022-07-26T08:00:09;98617.00;;;38.87
12430;BMP280;6279;42.192;24.326;2022-07-26T08:02:36;98610.69;;;39.39
12430;BMP280;6279;42.192;24.326;2022-07-26T08:05:02;98613.84;;;38.86
12430;BMP280;6279;42.192;24.326;2022-07-26T08:07:28;98610.34;;;38.51
12430;BMP280;6279;42.192;24.326;2022-07-26T08:09:55;98605.31;;;37.74
12430;BMP280;6279;42.192;24.326;2022-07-26T08:12:21;98601.56;;;37.94
12430;BMP280;6279;42.192;24.326;2022-07-26T08:14:46;98596.66;;;38.82
12430;BMP280;6279;42.192;24.326;2022-07-26T08:17:12;98587.94;;;39.51
12430;BMP280;6279;42.192;24.326;2022-07-26T08:19:37;98596.34;;;38.68
12430;BMP280;6279;42.192;24.326;2022-07-26T08:22:03;98598.44;;;39.30
12430;BMP280;6279;42.192;24.326;2022-07-26T08:24:28;98591.78;;;39.90
12430;BMP280;6279;42.192;24.326;2022-07-26T08:26:54;98586.06;;;41.36
12430;BMP280;6279;42.192;24.326;2022-07-26T08:29:19;98582.75;;;39.86
12430;BMP280;6279;42.192;24.326;2022-07-26T08:31:45;98579.19;;;39.82
12430;BMP280;6279;42.192;24.326;2022-07-26T08:34:10;98577.22;;;41.13
12430;BMP280;6279;42.192;24.326;2022-07-26T08:36:36;98564.78;;;41.98
12430;BMP280;6279;42.192;24.326;2022-07-26T08:39:02;98580.38;;;41.19
12430;BMP280;6279;42.192;24.326;2022-07-26T08:41:28;98572.19;;;41.54
12430;BMP280;6279;42.192;24.326;2022-07-26T08:44:03;98572.81;;;41.77
12430;BMP280;6279;42.192;24.326;2022-07-26T08:46:29;98570.72;;;42.59
12430;BMP280;6279;42.192;24.326;2022-07-26T08:48:55;98560.13;;;43.69
12430;BMP280;6279;42.192;24.326;2022-07-26T08:51:22;98563.84;;;44.91
12430;BMP280;6279;42.192;24.326;2022-07-26T08:53:49;98561.50;;;44.96
12430;BMP280;6279;42.192;24.326;2022-07-26T08:56:16;98557.47;;;46.57
12430;BMP280;6279;42.192;24.326;2022-07-26T08:58:42;98558.81;;;45.53
12430;BMP280;6279;42.192;24.326;2022-07-26T09:01:09;98560.16;;;45.25
12430;BMP280;6279;42.192;24.326;2022-07-26T09:03:38;98555.72;;;46.41
12430;BMP280;6279;42.192;24.326;2022-07-26T09:06:20;98551.28;;;46.10
12430;BMP280;6279;42.192;24.326;2022-07-26T09:08:49;98546.16;;;48.14
12430;BMP280;6279;42.192;24.326;2022-07-26T09:13:54;98544.00;;;47.54
12430;BMP280;6279;42.192;24.326;2022-07-26T09:16:20;98541.81;;;45.05
12430;BMP280;6279;42.192;24.326;2022-07-26T09:18:45;98539.53;;;44.93
12430;BMP280;6279;42.192;24.326;2022-07-26T09:21:30;98534.31;;;46.19
12430;BMP280;6279;42.192;24.326;2022-07-26T09:23:56;98526.19;;;48.07
12430;BMP280;6279;42.192;24.326;2022-07-26T09:26:22;98525.13;;;47.53
12430;BMP280;6279;42.192;24.326;2022-07-26T09:29:11;98524.22;;;48.49
12430;BMP280;6279;42.192;24.326;2022-07-26T09:31:37;98514.97;;;47.20
12430;BMP280;6279;42.192;24.326;2022-07-26T09:34:04;98528.81;;;43.90
12430;BMP280;6279;42.192;24.326;2022-07-26T09:36:30;98523.25;;;43.15
12430;BMP280;6279;42.192;24.326;2022-07-26T09:38:59;98533.13;;;41.93
12430;BMP280;6279;42.192;24.326;2022-07-26T09:43:56;98517.94;;;41.99
12430;BMP280;6279;42.192;24.326;2022-07-26T09:46:28;98515.41;;;43.13
12430;BMP280;6279;42.192;24.326;2022-07-26T09:48:55;98509.88;;;44.54
12430;BMP280;6279;42.192;24.326;2022-07-26T09:53:59;98495.94;;;43.56
12430;BMP280;6279;42.192;24.326;2022-07-26T09:56:40;98502.53;;;41.74
12430;BMP280;6279;42.192;24.326;2022-07-26T09:59:06;98497.72;;;42.07
12430;BMP280;6279;42.192;24.326;2022-07-26T10:01:32;98490.41;;;43.15
12430;BMP280;6279;42.192;24.326;2022-07-26T10:03:58;98498.94;;;42.96
12430;BMP280;6279;42.192;24.326;2022-07-26T10:06:23;98487.19;;;42.86
12430;BMP280;6279;42.192;24.326;2022-07-26T10:08:49;98502.78;;;42.05
12430;BMP280;6279;42.192;24.326;2022-07-26T10:11:15;98497.06;;;40.60
12430;BMP280;6279;42.192;24.326;2022-07-26T10:13:42;98484.72;;;41.48
12430;BMP280;6279;42.192;24.326;2022-07-26T10:16:27;98485.72;;;40.58
12430;BMP280;6279;42.192;24.326;2022-07-26T10:18:53;98481.78;;;41.66
12430;BMP280;6279;42.192;24.326;2022-07-26T10:21:24;98484.06;;;42.90
12430;BMP280;6279;42.192;24.326;2022-07-26T10:24:00;98473.88;;;42.91
12430;BMP280;6279;42.192;24.326;2022-07-26T10:31:48;98472.31;;;42.80
12430;BMP280;6279;42.192;24.326;2022-07-26T10:34:38;98462.59;;;42.92
12430;BMP280;6279;42.192;24.326;2022-07-26T10:37:06;98454.41;;;43.81
12430;BMP280;6279;42.192;24.326;2022-07-26T10:39:31;98460.59;;;42.89
12430;BMP280;6279;42.192;24.326;2022-07-26T10:42:06;98445.38;;;43.98
12430;BMP280;6279;42.192;24.326;2022-07-26T10:44:34;98449.88;;;44.63
12430;BMP280;6279;42.192;24.326;2022-07-26T10:47:03;98449.41;;;42.28
12430;BMP280;6279;42.192;24.326;2022-07-26T10:49:36;98445.38;;;41.49
12430;BMP280;6279;42.192;24.326;2022-07-26T10:59:53;98422.88;;;42.35
12430;BMP280;6279;42.192;24.326;2022-07-26T11:02:25;98428.19;;;43.12
12430;BMP280;6279;42.192;24.326;2022-07-26T11:07:25;98429.16;;;41.73
12430;BMP280;6279;42.192;24.326;2022-07-26T11:09:54;98405.56;;;42.04
12430;BMP280;6279;42.192;24.326;2022-07-26T11:12:20;98409.03;;;43.19
12430;BMP280;6279;42.192;24.326;2022-07-26T11:14:46;98401.06;;;42.52
12430;BMP280;6279;42.192;24.326;2022-07-26T11:17:28;98399.78;;;42.22
12430;BMP280;6279;42.192;24.326;2022-07-26T11:19:55;98393.16;;;42.20
12430;BMP280;6279;42.192;24.326;2022-07-26T11:22:21;98379.16;;;42.39
12430;BMP280;6279;42.192;24.326;2022-07-26T11:24:54;98387.38;;;41.19
12430;BMP280;6279;42.192;24.326;2022-07-26T11:27:20;98378.88;;;40.46
12430;BMP280;6279;42.192;24.326;2022-07-26T11:29:45;98378.66;;;39.24
12430;BMP280;6279;42.192;24.326;2022-07-26T11:32:37;98380.31;;;38.43
12430;BMP280;6279;42.192;24.326;2022-07-26T11:35:03;98378.44;;;37.73
12430;BMP280;6279;42.192;24.326;2022-07-26T11:37:29;98374.78;;;37.84
12430;BMP280;6279;42.192;24.326;2022-07-26T11:39:56;98362.66;;;38.16
12430;BMP280;6279;42.192;24.326;2022-07-26T11:42:21;98368.34;;;38.66
12430;BMP280;6279;42.192;24.326;2022-07-26T11:44:48;98361.03;;;38.70
12430;BMP280;6279;42.192;24.326;2022-07-26T11:47:20;98362.00;;;39.25
12430;BMP280;6279;42.192;24.326;2022-07-26T11:49:46;98364.03;;;38.65
12430;BMP280;6279;42.192;24.326;2022-07-26T11:52:12;98349.41;;;38.73
12430;BMP280;6279;42.192;24.326;2022-07-26T11:54:49;98350.25;;;38.77
12430;BMP280;6279;42.192;24.326;2022-07-26T11:57:16;98356.44;;;39.69
12430;BMP280;6279;42.192;24.326;2022-07-26T11:59:43;98346.59;;;40.19
12430;BMP280;6279;42.192;24.326;2022-07-26T12:02:09;98346.00;;;40.71
12430;BMP280;6279;42.192;24.326;2022-07-26T12:04:40;98335.03;;;40.65
12430;BMP280;6279;42.192;24.326;2022-07-26T12:07:14;98340.84;;;41.02
12430;BMP280;6279;42.192;24.326;2022-07-26T12:09:45;98335.53;;;40.77
12430;BMP280;6279;42.192;24.326;2022-07-26T12:12:24;98328.16;;;40.06
12430;BMP280;6279;42.192;24.326;2022-07-26T12:15:04;98335.81;;;38.95
12430;BMP280;6279;42.192;24.326;2022-07-26T12:17:31;98319.41;;;38.44
12430;BMP280;6279;42.192;24.326;2022-07-26T12:20:10;98324.09;;;38.47
12430;BMP280;6279;42.192;24.326;2022-07-26T12:22:36;98316.69;;;38.07
12430;BMP280;6279;42.192;24.326;2022-07-26T12:25:02;98311.84;;;37.97
12430;BMP280;6279;42.192;24.326;2022-07-26T12:27:29;98305.31;;;37.83
12430;BMP280;6279;42.192;24.326;2022-07-26T12:32:31;98308.78;;;37.47
12430;BMP280;6279;42.192;24.326;2022-07-26T12:34:59;98296.47;;;37.34
12430;BMP280;6279;42.192;24.326;2022-07-26T12:37:29;98295.97;;;37.29
12430;BMP280;6279;42.192;24.326;2022-07-26T12:40:12;98297.22;;;36.40
12430;BMP280;6279;42.192;24.326;2022-07-26T12:45:11;98287.25;;;36.44
12430;BMP280;6279;42.192;24.326;2022-07-26T12:47:39;98284.34;;;37.13
12430;BMP280;6279;42.192;24.326;2022-07-26T12:50:05;98279.44;;;37.18
12430;BMP280;6279;42.192;24.326;2022-07-26T12:52:31;98279.84;;;37.02
12430;BMP280;6279;42.192;24.326;2022-07-26T12:54:58;98279.59;;;36.76
12430;BMP280;6279;42.192;24.326;2022-07-26T12:57:24;98280.03;;;36.78
12430;BMP280;6279;42.192;24.326;2022-07-26T12:59:51;98282.41;;;36.22
12430;BMP280;6279;42.192;24.326;2022-07-26T13:02:18;98294.34;;;35.79
12430;BMP280;6279;42.192;24.326;2022-07-26T13:04:44;98283.72;;;35.86
12430;BMP280;6279;42.192;24.326;2022-07-26T13:07:10;98279.22;;;36.32
12430;BMP280;6279;42.192;24.326;2022-07-26T13:09:35;98270.31;;;36.77
12430;BMP280;6279;42.192;24.326;2022-07-26T13:12:02;98262.09;;;36.89
12430;BMP280;6279;42.192;24.326;2022-07-26T13:14:28;98268.28;;;37.05
12430;BMP280;6279;42.192;24.326;2022-07-26T13:16:54;98257.63;;;37.30
12430;BMP280;6279;42.192;24.326;2022-07-26T13:19:19;98259.66;;;36.84
12430;BMP280;6279;42.192;24.326;2022-07-26T13:21:45;98260.63;;;36.76
12430;BMP280;6279;42.192;24.326;2022-07-26T13:24:10;98268.22;;;36.41
12430;BMP280;6279;42.192;24.326;2022-07-26T13:26:36;98276.06;;;36.61
12430;BMP280;6279;42.192;24.326;2022-07-26T13:29:02;98261.94;;;36.67
12430;BMP280;6279;42.192;24.326;2022-07-26T13:31:28;98258.53;;;36.85
12430;BMP280;6279;42.192;24.326;2022-07-26T13:33:53;98269.50;;;37.22
12430;BMP280;6279;42.192;24.326;2022-07-26T13:36:19;98260.72;;;37.13
12430;BMP280;6279;42.192;24.326;2022-07-26T13:38:44;98254.41;;;36.76
12430;BMP280;6279;42.192;24.326;2022-07-26T13:41:10;98256.59;;;36.70
12430;BMP280;6279;42.192;24.326;2022-07-26T13:43:35;98251.53;;;36.54
12430;BMP280;6279;42.192;24.326;2022-07-26T13:46:01;98260.25;;;36.47
12430;BMP280;6279;42.192;24.326;2022-07-26T13:48:26;98249.00;;;36.76
12430;BMP280;6279;42.192;24.326;2022-07-26T13:50:53;98254.41;;;36.91
12430;BMP280;6279;42.192;24.326;2022-07-26T13:53:18;98247.97;;;36.99
12430;BMP280;6279;42.192;24.326;2022-07-26T13:55:44;98263.22;;;37.03
12430;BMP280;6279;42.192;24.326;2022-07-26T13:58:09;98257.47;;;36.74
12430;BMP280;6279;42.192;24.326;2022-07-26T14:00:35;98245.84;;;36.74
12430;BMP280;6279;42.192;24.326;2022-07-26T14:03:00;98256.78;;;36.77
12430;BMP280;6279;42.192;24.326;2022-07-26T14:05:26;98248.09;;;37.02
12430;BMP280;6279;42.192;24.326;2022-07-26T14:07:53;98247.72;;;37.04
12430;BMP280;6279;42.192;24.326;2022-07-26T14:10:19;98234.94;;;37.19
12430;BMP280;6279;42.192;24.326;2022-07-26T14:12:45;98237.88;;;37.48
12430;BMP280;6279;42.192;24.326;2022-07-26T14:15:11;98236.69;;;37.64
12430;BMP280;6279;42.192;24.326;2022-07-26T14:17:37;98238.59;;;38.01
12430;BMP280;6279;42.192;24.326;2022-07-26T14:20:03;98230.78;;;37.99
12430;BMP280;6279;42.192;24.326;2022-07-26T14:22:30;98234.66;;;37.98
12430;BMP280;6279;42.192;24.326;2022-07-26T14:24:55;98231.31;;;37.86
12430;BMP280;6279;42.192;24.326;2022-07-26T14:27:21;98229.06;;;37.54
12430;BMP280;6279;42.192;24.326;2022-07-26T14:29:46;98223.44;;;37.44
12430;BMP280;6279;42.192;24.326;2022-07-26T14:32:12;98220.09;;;37.32
12430;BMP280;6279;42.192;24.326;2022-07-26T14:34:38;98215.09;;;37.34